Time;durP1;ratioP1;P1;durP2;ratioP2;P2;SDS_P1;SDS_P2;PMS_P1;PMS_P2;Temp;Humidity;BMP_temperature;BMP_pressure;BME280_temperature;BME280_humidity;BME280_pressure;Samples;Min_cycle;Max_cycle;Signal;HPM_P1;HPM_P2
2021/04/22 00:00:35;;;;;;;61.07;38.20;;;;;;;8.60;68.32;98473.04;2226741;80;21098;-77
2021/04/22 00:03:38;;;;;;;63.07;39.47;;;;;;;8.61;67.90;98471.31;2226156;79;21439;-77
2021/04/22 00:06:43;;;;;;;60.30;38.70;;;;;;;8.63;67.94;98470.48;2226345;80;21371;-77
2021/04/22 00:09:44;;;;;;;63.00;39.03;;;;;;;8.64;67.84;98472.66;2226230;80;21117;-78
2021/04/22 00:12:45;;;;;;;57.30;36.90;;;;;;;8.65;67.90;98460.52;2226334;80;21070;-78
2021/04/22 00:15:46;;;;;;;61.50;37.30;;;;;;;8.65;67.86;98467.90;2226319;80;21102;-78
2021/04/22 00:18:47;;;;;;;60.67;37.53;;;;;;;8.66;68.03;98463.57;2226183;80;21138;-78
2021/04/22 00:21:48;;;;;;;63.50;36.70;;;;;;;8.66;67.98;98464.87;2226190;80;21137;-77
2021/04/22 00:24:50;;;;;;;60.47;37.03;;;;;;;8.63;67.91;98463.10;2226200;80;21071;-77
2021/04/22 00:27:51;;;;;;;64.40;37.27;;;;;;;8.60;67.98;98456.55;2226175;79;21090;-77
2021/04/22 00:30:53;;;;;;;51.20;35.17;;;;;;;8.58;67.93;98457.84;2226360;79;21220;-78
2021/04/22 00:33:54;;;;;;;56.07;35.37;;;;;;;8.57;67.98;98463.02;2226426;80;21101;-78
2021/04/22 00:36:55;;;;;;;53.10;34.43;;;;;;;8.56;68.00;98454.77;2226286;80;21097;-77
2021/04/22 00:39:56;;;;;;;57.57;35.20;;;;;;;8.55;68.06;98456.49;2226293;80;21145;-78
2021/04/22 00:42:57;;;;;;;50.87;33.03;;;;;;;8.57;68.03;98451.31;2226403;80;21070;-77
2021/04/22 00:45:58;;;;;;;50.33;31.97;;;;;;;8.60;68.02;98458.73;2226366;80;21375;-78
2021/04/22 00:48:59;;;;;;;53.37;32.73;;;;;;;8.66;68.01;98455.77;2226274;80;21098;-77
2021/04/22 00:52:00;;;;;;;48.60;31.93;;;;;;;8.72;67.98;98458.48;2226196;80;21112;-77
2021/04/22 00:55:01;;;;;;;54.97;32.00;;;;;;;8.78;67.91;98461.16;2226338;79;21106;-77
2021/04/22 00:58:02;;;;;;;46.23;29.30;;;;;;;8.84;67.85;98458.20;2226432;80;21129;-76
2021/04/22 01:01:04;;;;;;;52.87;30.33;;;;;;;8.90;67.76;98456.98;2226322;80;21117;-77
2021/04/22 01:04:05;;;;;;;49.27;30.43;;;;;;;8.93;67.72;98454.84;2249916;79;21133;-76
2021/04/22 01:07:06;;;;;;;58.00;29.70;;;;;;;9.06;67.72;98449.34;2257772;79;21100;-75
2021/04/22 01:10:07;;;;;;;43.47;30.00;;;;;;;9.06;67.72;98449.34;2257821;79;21219;-76
2021/04/22 01:13:08;;;;;;;47.90;29.60;;;;;;;9.09;67.51;98446.78;2257789;79;21076;-77
2021/04/22 01:16:11;;;;;;;49.90;29.83;;;;;;;9.11;67.43;98439.44;2257871;79;21129;-77
2021/04/22 01:19:12;;;;;;;47.27;28.10;;;;;;;9.14;67.42;98433.38;2258411;78;21399;-77
2021/04/22 01:22:13;;;;;;;45.97;29.53;;;;;;;9.14;67.48;98439.47;2257781;79;21246;-77
2021/04/22 01:25:14;;;;;;;43.07;27.70;;;;;;;9.17;67.25;98438.63;2257817;78;21243;-77
2021/04/22 01:28:15;;;;;;;41.07;27.10;;;;;;;9.19;67.14;98437.78;2257681;79;21136;-76
2021/04/22 01:31:16;;;;;;;43.00;27.37;;;;;;;9.17;67.16;98433.42;2257740;79;21374;-77
2021/04/22 01:34:17;;;;;;;35.73;25.20;;;;;;;9.15;67.04;98434.70;2257826;79;21222;-77
2021/04/22 01:37:18;;;;;;;39.83;25.83;;;;;;;9.18;67.01;98431.26;2257671;79;21132;-77
2021/04/22 01:40:19;;;;;;;40.10;24.40;;;;;;;9.17;66.88;98436.89;2257828;78;21096;-77
2021/04/22 01:43:20;;;;;;;40.23;25.10;;;;;;;9.14;66.78;98430.78;2257946;79;21096;-76
2021/04/22 01:46:22;;;;;;;34.90;23.30;;;;;;;9.11;66.72;98438.56;2257996;78;21085;-76
2021/04/22 01:49:23;;;;;;;36.57;21.07;;;;;;;9.09;66.62;98441.14;2257739;79;21100;-76
2021/04/22 01:52:24;;;;;;;33.60;23.43;;;;;;;9.07;66.57;98444.16;2257687;79;21386;-77
2021/04/22 01:55:25;;;;;;;35.97;21.23;;;;;;;9.07;66.52;98438.08;2257802;79;21096;-77
2021/04/22 01:58:26;;;;;;;38.07;21.83;;;;;;;9.05;66.49;98434.59;2257694;79;21255;-76
2021/04/22 02:01:27;;;;;;;30.30;21.43;;;;;;;9.04;66.45;98434.14;2257719;79;21069;-78
2021/04/22 02:04:28;;;;;;;28.23;19.83;;;;;;;8.99;66.45;98428.88;2257769;78;21516;-77
2021/04/22 02:07:29;;;;;;;39.20;20.83;;;;;;;8.94;66.42;98430.56;2258026;79;21097;-77
2021/04/22 02:10:30;;;;;;;28.83;18.90;;;;;;;8.90;66.43;98429.65;2257897;79;21069;-78
2021/04/22 02:13:31;;;;;;;25.07;18.40;;;;;;;8.91;66.34;98427.92;2258018;79;21351;-78
2021/04/22 02:16:32;;;;;;;32.93;18.07;;;;;;;8.88;66.17;98431.36;2257906;79;21096;-77
2021/04/22 02:19:33;;;;;;;30.87;17.90;;;;;;;8.86;66.14;98433.07;2258610;79;21140;-77
2021/04/22 02:22:34;;;;;;;30.93;18.40;;;;;;;8.85;66.10;98433.92;2258151;79;21100;-77
2021/04/22 02:25:35;;;;;;;26.90;18.87;;;;;;;8.82;66.05;98429.98;2257920;79;21089;-78
2021/04/22 02:28:36;;;;;;;30.63;20.03;;;;;;;8.83;66.14;98415.24;2257841;79;21164;-78
2021/04/22 02:31:37;;;;;;;41.50;19.83;;;;;;;8.85;66.08;98410.50;2257875;79;21385;-77
2021/04/22 02:34:39;;;;;;;31.43;18.97;;;;;;;8.87;66.04;98408.80;2257895;79;21100;-78
2021/04/22 02:37:40;;;;;;;35.30;17.67;;;;;;;8.89;66.16;98408.37;2258183;78;21141;-78
2021/04/22 02:40:41;;;;;;;24.83;16.73;;;;;;;8.89;66.38;98404.48;2258242;78;21231;-78
2021/04/22 02:43:42;;;;;;;23.27;16.97;;;;;;;8.86;66.26;98396.63;2258221;79;21061;-78
2021/04/22 02:46:44;;;;;;;31.40;17.67;;;;;;;8.80;66.18;98410.88;2258298;79;21105;-77
2021/04/22 02:49:45;;;;;;;28.93;16.90;;;;;;;8.72;66.13;98424.22;2258159;79;21073;-77
2021/04/22 02:52:46;;;;;;;28.07;17.10;;;;;;;8.58;66.39;98427.92;2258281;78;21417;-78
2021/04/22 02:55:47;;;;;;;29.87;17.83;;;;;;;8.47;66.58;98426.03;2257939;78;21386;-78
2021/04/22 02:58:48;;;;;;;31.07;17.43;;;;;;;8.34;66.73;98424.12;2258124;79;21137;-78
2021/04/22 03:01:49;;;;;;;25.13;16.83;;;;;;;8.21;66.94;98421.31;2258060;78;21101;-78
2021/04/22 03:04:50;;;;;;;22.20;16.00;;;;;;;8.10;66.93;98433.70;2257839;79;21266;-77
2021/04/22 03:07:51;;;;;;;32.27;17.93;;;;;;;7.99;67.07;98438.31;2258081;79;21096;-78
2021/04/22 03:10:52;;;;;;;25.37;17.63;;;;;;;7.90;67.07;98434.70;2258391;79;21105;-78
2021/04/22 03:13:53;;;;;;;29.07;17.83;;;;;;;7.85;67.15;98454.54;2258286;78;21069;-78
2021/04/22 03:16:55;;;;;;;22.87;15.97;;;;;;;7.79;67.47;98454.41;2258144;79;21105;-78
2021/04/22 03:19:56;;;;;;;24.23;17.40;;;;;;;7.74;67.52;98449.55;2258047;79;21437;-78
2021/04/22 03:22:57;;;;;;;27.13;16.03;;;;;;;7.73;67.41;98458.20;2258082;79;21073;-79
2021/04/22 03:25:58;;;;;;;22.30;16.53;;;;;;;7.67;67.58;98454.65;2258135;79;21116;-80
2021/04/22 03:28:59;;;;;;;29.27;16.17;;;;;;;7.67;67.67;98455.08;2258099;79;21176;-78
2021/04/22 03:32:00;;;;;;;28.40;16.40;;;;;;;7.70;67.54;98455.55;2258050;79;21227;-76
2021/04/22 03:35:03;;;;;;;28.73;15.77;;;;;;;7.69;67.30;98458.57;2258216;79;21101;-79
2021/04/22 03:38:04;;;;;;;33.70;17.30;;;;;;;7.78;67.35;98463.05;2258124;79;21141;-79
2021/04/22 03:41:05;;;;;;;25.60;18.13;;;;;;;7.78;67.35;98463.05;2258137;79;21104;-78
2021/04/22 03:44:06;;;;;;;27.80;15.57;;;;;;;7.80;67.23;98470.44;2257813;79;21089;-77
2021/04/22 03:47:07;;;;;;;23.87;15.50;;;;;;;7.85;67.13;98476.63;2257782;79;21112;-77
2021/04/22 03:50:08;;;;;;;29.40;16.60;;;;;;;7.89;67.19;98481.02;2257779;79;21069;-76
2021/04/22 03:53:09;;;;;;;24.70;14.33;;;;;;;7.89;66.95;98481.02;2257436;78;21101;-77
2021/04/22 03:56:10;;;;;;;41.80;18.37;;;;;;;7.88;66.96;98488.38;2257791;79;21220;-77
2021/04/22 03:59:11;;;;;;;22.77;16.00;;;;;;;7.87;67.24;98499.19;2257811;79;21133;-76
2021/04/22 04:02:12;;;;;;;23.60;16.50;;;;;;;7.86;67.37;98497.86;2257732;79;21111;-76
2021/04/22 04:05:14;;;;;;;25.23;17.10;;;;;;;7.85;67.09;98500.89;2257978;79;21159;-77
2021/04/22 04:08:15;;;;;;;31.77;18.77;;;;;;;7.85;67.28;98513.00;2257793;78;21202;-77
2021/04/22 04:11:16;;;;;;;32.50;19.77;;;;;;;7.82;67.21;98527.24;2258265;78;21128;-77
2021/04/22 04:14:17;;;;;;;31.13;19.43;;;;;;;7.79;67.15;98522.83;2258024;79;21072;-77
2021/04/22 04:17:18;;;;;;;29.93;21.53;;;;;;;7.81;67.16;98517.70;2257975;79;21077;-78
2021/04/22 04:20:19;;;;;;;26.80;19.10;;;;;;;7.81;67.16;98517.70;2258113;78;21137;-78
2021/04/22 04:23:20;;;;;;;29.20;18.87;;;;;;;7.84;67.41;98525.55;2257855;79;21104;-78
2021/04/22 04:26:21;;;;;;;28.93;18.83;;;;;;;7.88;67.37;98522.16;2257756;79;21159;-77
2021/04/22 04:29:23;;;;;;;27.63;18.90;;;;;;;7.93;67.18;98530.48;2257984;79;21394;-77
2021/04/22 04:32:24;;;;;;;29.93;19.17;;;;;;;8.02;67.13;98536.69;2257456;79;21381;-76
2021/04/22 04:35:25;;;;;;;33.10;20.30;;;;;;;8.03;67.33;98539.73;2257387;78;21109;-77
2021/04/22 04:38:26;;;;;;;29.67;18.90;;;;;;;8.10;67.51;98556.76;2257965;79;21120;-77
2021/04/22 04:41:27;;;;;;;26.40;17.27;;;;;;;8.10;67.51;98556.76;2257961;79;21333;-77
2021/04/22 04:44:28;;;;;;;24.57;17.87;;;;;;;8.13;67.78;98562.01;2257969;79;21109;-77
2021/04/22 04:47:29;;;;;;;27.53;19.47;;;;;;;8.17;67.69;98565.53;2258133;79;21096;-77
2021/04/22 04:50:30;;;;;;;28.83;18.90;;;;;;;8.19;67.43;98558.21;2257934;79;21213;-77
2021/04/22 04:53:31;;;;;;;25.87;19.00;;;;;;;8.22;67.52;98547.86;2257825;79;21108;-77
2021/04/22 04:56:33;;;;;;;27.47;19.50;;;;;;;8.24;67.68;98555.69;2257723;79;21084;-77
2021/04/22 04:59:34;;;;;;;30.23;19.70;;;;;;;8.28;67.62;98555.76;2256976;79;21109;-77
2021/04/22 05:02:35;;;;;;;28.97;20.07;;;;;;;8.30;67.52;98562.28;2257315;79;21388;-76
2021/04/22 05:05:36;;;;;;;35.27;25.20;;;;;;;8.31;67.62;98567.52;2229191;79;21562;-76
2021/04/22 05:08:37;;;;;;;29.80;19.80;;;;;;;8.29;67.63;98575.72;2225470;80;21438;-79
2021/04/22 05:11:38;;;;;;;27.97;22.80;;;;;;;8.34;67.62;98568.45;2225494;80;21090;-78
2021/04/22 05:14:39;;;;;;;30.40;21.37;;;;;;;8.42;67.46;98573.34;2226397;80;21098;-78
2021/04/22 05:17:40;;;;;;;32.00;23.33;;;;;;;8.49;67.46;98579.09;2226287;79;21114;-78
2021/04/22 05:20:42;;;;;;;32.53;21.33;;;;;;;8.56;67.40;98583.11;2226603;80;21225;-79
2021/04/22 05:23:43;;;;;;;36.47;22.63;;;;;;;8.60;67.41;98586.22;2226348;80;21212;-79
2021/04/22 05:26:44;;;;;;;32.37;21.77;;;;;;;8.65;67.62;98589.31;2226440;80;21105;-79
2021/04/22 05:29:46;;;;;;;28.33;21.80;;;;;;;8.67;67.20;98583.70;2227011;80;21145;-80
2021/04/22 05:32:47;;;;;;;28.23;21.20;;;;;;;8.67;67.14;98591.13;2226522;80;21384;-80
2021/04/22 05:35:48;;;;;;;29.33;22.67;;;;;;;8.70;67.17;98592.47;2226133;80;21510;-78
2021/04/22 05:38:51;;;;;;;28.87;21.17;;;;;;;8.69;67.38;98603.73;2225953;80;21125;-80
2021/04/22 05:41:55;;;;;;;29.10;23.40;;;;;;;8.62;67.35;98598.82;2226899;80;21137;-79
2021/04/22 05:44:55;;;;;;;33.50;23.00;;;;;;;8.57;67.38;98604.38;2226328;80;21375;-79
2021/04/22 05:47:56;;;;;;;29.67;22.43;;;;;;;8.52;67.28;98607.76;2226780;80;21218;-79
2021/04/22 05:50:59;;;;;;;36.90;22.57;;;;;;;8.51;67.47;98617.29;2226833;80;21113;-79
2021/04/22 05:54:00;;;;;;;35.83;24.40;;;;;;;8.42;67.71;98627.97;2226634;79;21086;-79
2021/04/22 05:57:01;;;;;;;32.67;23.63;;;;;;;8.42;67.71;98627.97;2227055;80;21110;-79
2021/04/22 06:00:03;;;;;;;31.07;24.13;;;;;;;8.33;67.96;98628.69;2227009;79;21451;-79
2021/04/22 06:03:04;;;;;;;33.77;24.07;;;;;;;8.16;68.66;98641.36;2227377;80;21225;-80
2021/04/22 06:06:05;;;;;;;31.80;25.87;;;;;;;8.05;69.39;98641.59;2226666;79;21458;-79
2021/04/22 06:09:07;;;;;;;39.33;26.00;;;;;;;8.06;69.83;98651.56;2227125;80;21344;-80
2021/04/22 06:12:08;;;;;;;33.03;24.00;;;;;;;7.95;70.36;98647.46;2227333;80;21114;-79
2021/04/22 06:15:09;;;;;;;35.03;24.97;;;;;;;7.91;71.21;98658.64;2226944;80;21097;-79
2021/04/22 06:18:10;;;;;;;39.07;28.63;;;;;;;7.81;72.42;98664.52;2227645;80;21145;-80
2021/04/22 06:21:12;;;;;;;55.47;39.83;;;;;;;7.59;73.27;98666.64;2228172;80;21121;-81
2021/04/22 06:24:13;;;;;;;46.57;34.03;;;;;;;7.59;73.27;98666.64;2226807;79;21129;-79
2021/04/22 06:27:18;;;;;;;47.53;33.20;;;;;;;7.54;72.92;98666.97;2226811;79;21125;-81
2021/04/22 06:30:19;;;;;;;76.80;38.93;;;;;;;7.52;73.16;98663.89;2226677;80;21157;-78
2021/04/22 06:33:20;;;;;;;76.07;39.10;;;;;;;7.51;74.36;98668.63;2226902;80;21410;-78
2021/04/22 06:36:21;;;;;;;64.03;37.57;;;;;;;7.47;74.48;98675.90;2227215;80;21074;-79
2021/04/22 06:39:22;;;;;;;49.40;30.53;;;;;;;7.45;73.77;98675.86;2227326;80;21163;-79
2021/04/22 06:42:23;;;;;;;42.73;30.70;;;;;;;7.44;73.85;98678.01;2227367;79;21102;-79
2021/04/22 06:45:24;;;;;;;40.17;30.43;;;;;;;7.44;74.57;98688.39;2227699;80;21118;-79
2021/04/22 06:48:25;;;;;;;43.97;32.17;;;;;;;7.41;74.67;98691.34;2227876;80;21244;-79
2021/04/22 06:51:26;;;;;;;43.57;29.07;;;;;;;7.33;75.78;98702.45;2227662;80;21110;-81
2021/04/22 06:54:27;;;;;;;29.07;19.97;;;;;;;6.75;74.93;98718.75;2228296;80;21119;-81
2021/04/22 06:57:28;;;;;;;23.30;19.67;;;;;;;6.75;74.93;98718.75;2228160;80;21102;-80
2021/04/22 07:00:30;;;;;;;25.10;19.20;;;;;;;6.37;75.41;98733.79;2227885;79;21154;-81
2021/04/22 07:03:31;;;;;;;35.83;21.80;;;;;;;6.05;75.77;98737.19;2228031;79;21245;-81
2021/04/22 07:06:32;;;;;;;28.30;20.93;;;;;;;5.89;76.99;98747.92;2227924;80;21101;-79
2021/04/22 07:09:35;;;;;;;27.53;20.53;;;;;;;5.85;77.33;98753.44;2228300;80;21114;-79
2021/04/22 07:12:37;;;;;;;28.07;19.43;;;;;;;5.81;77.58;98764.96;2228737;80;21106;-78
2021/04/22 07:15:38;;;;;;;25.57;20.10;;;;;;;5.73;77.87;98766.03;2228705;80;21228;-79
2021/04/22 07:18:39;;;;;;;19.23;9.50;;;;;;;5.62;78.44;98787.72;2228883;80;21145;-79
2021/04/22 07:21:40;;;;;;;17.27;7.90;;;;;;;5.44;74.99;98810.04;2228434;80;21220;-79
2021/04/22 07:24:41;;;;;;;16.37;8.40;;;;;;;5.19;76.05;98815.23;2227958;80;21085;-79
2021/04/22 07:27:42;;;;;;;19.37;7.20;;;;;;;5.05;76.81;98808.32;2227997;80;21454;-78
2021/04/22 07:30:43;;;;;;;16.63;6.63;;;;;;;4.94;76.34;98809.67;2227296;79;21137;-81
2021/04/22 07:33:44;;;;;;;12.60;6.50;;;;;;;4.83;76.43;98817.90;2227472;79;21094;-81
2021/04/22 07:36:45;;;;;;;17.60;6.47;;;;;;;4.79;76.65;98818.20;2227725;80;21105;-81
2021/04/22 07:39:47;;;;;;;22.57;7.33;;;;;;;4.68;76.54;98838.53;2227560;80;21150;-81
2021/04/22 07:42:48;;;;;;;17.93;8.30;;;;;;;4.57;76.11;98848.03;2226942;80;21483;-79
2021/04/22 07:45:49;;;;;;;19.20;8.80;;;;;;;4.47;76.04;98844.23;2226256;80;21094;-80
2021/04/22 07:48:50;;;;;;;24.43;9.50;;;;;;;4.47;76.12;98851.58;2227913;79;21105;-80
2021/04/22 07:51:52;;;;;;;20.20;8.30;;;;;;;4.59;75.69;98843.79;2226623;79;21122;-79
2021/04/22 07:54:53;;;;;;;12.77;5.70;;;;;;;4.67;75.36;98836.77;2226718;80;21106;-80
2021/04/22 07:57:54;;;;;;;16.40;5.93;;;;;;;4.85;75.24;98850.75;2227119;80;21110;-81
2021/04/22 08:00:55;;;;;;;17.93;7.03;;;;;;;5.05;75.34;98856.18;2227349;80;21102;-81
2021/04/22 08:03:56;;;;;;;22.57;9.37;;;;;;;5.15;74.48;98861.66;2229458;79;21237;-80
2021/04/22 08:06:58;;;;;;;15.30;6.97;;;;;;;5.26;74.32;98860.34;2258934;78;21101;-80
2021/04/22 08:09:59;;;;;;;17.10;7.87;;;;;;;5.39;74.43;98856.91;2259365;79;21124;-80
2021/04/22 08:13:02;;;;;;;17.73;8.50;;;;;;;5.63;73.67;98853.34;2259091;79;21092;-80
2021/04/22 08:16:03;;;;;;;18.03;8.30;;;;;;;5.74;73.48;98856.73;2259670;79;21089;-80
2021/04/22 08:19:06;;;;;;;19.67;8.10;;;;;;;5.93;73.66;98857.32;2259562;79;21117;-79
2021/04/22 08:22:07;;;;;;;20.67;8.03;;;;;;;6.60;73.77;98860.17;2259415;78;21093;-80
2021/04/22 08:25:08;;;;;;;21.57;12.37;;;;;;;6.96;70.40;98856.43;2258931;79;21128;-79
2021/04/22 08:28:09;;;;;;;33.03;13.30;;;;;;;7.22;71.26;98858.81;2259286;79;21113;-81
2021/04/22 08:31:10;;;;;;;30.77;15.27;;;;;;;7.55;70.64;98857.04;2258956;79;21140;-79
2021/04/22 08:34:11;;;;;;;34.30;21.57;;;;;;;7.92;69.01;98863.13;2259574;79;21100;-79
2021/04/22 08:37:12;;;;;;;41.07;17.27;;;;;;;8.33;69.88;98861.45;2258542;79;21108;-79
2021/04/22 08:40:19;;;;;;;29.23;15.13;;;;;;;8.74;68.81;98861.02;2258595;79;21173;-80
2021/04/22 08:43:20;;;;;;;24.13;14.50;;;;;;;8.79;66.92;98856.77;2258895;79;21069;-80
2021/04/22 08:46:23;;;;;;;29.20;12.53;;;;;;;8.79;67.65;98862.40;2258977;78;21199;-78
2021/04/22 08:49:25;;;;;;;19.55;12.20;;;;;;;8.71;67.57;98865.28;2259179;79;21489;-79
2021/04/22 08:52:27;;;;;;;23.37;15.53;;;;;;;8.80;67.06;98853.32;2258403;78;21251;-79
2021/04/22 08:55:28;;;;;;;15.97;10.00;;;;;;;8.92;68.36;98867.87;2258865;79;21096;-79
2021/04/22 08:58:29;;;;;;;16.50;9.60;;;;;;;9.10;66.59;98868.62;2258374;78;21403;-79
2021/04/22 09:01:32;;;;;;;15.17;9.10;;;;;;;9.05;64.75;98866.79;2258066;79;21128;-79
2021/04/22 09:04:33;;;;;;;22.87;8.87;;;;;;;8.97;64.57;98865.34;2253370;79;21106;-79
2021/04/22 09:07:34;;;;;;;18.73;9.57;;;;;;;8.85;63.32;98858.19;2227044;79;21457;-80
2021/04/22 09:10:35;;;;;;;24.43;10.30;;;;;;;8.74;65.16;98862.73;2226725;79;21118;-79
2021/04/22 09:13:36;;;;;;;17.27;9.73;;;;;;;8.69;66.07;98865.25;2226893;80;21102;-79
2021/04/22 09:16:37;;;;;;;25.83;8.63;;;;;;;8.69;66.14;98865.67;2226707;80;21070;-79
2021/04/22 09:19:38;;;;;;;18.03;7.17;;;;;;;8.72;65.07;98864.43;2226829;80;21275;-79
2021/04/22 09:22:39;;;;;;;23.30;7.27;;;;;;;8.62;63.60;98856.84;2226959;80;21113;-79
2021/04/22 09:25:40;;;;;;;19.40;6.67;;;;;;;8.77;63.62;98860.19;2226981;79;21098;-79
2021/04/22 09:28:42;;;;;;;14.23;6.37;;;;;;;8.73;60.43;98864.89;2227698;79;21458;-79
2021/04/22 09:31:43;;;;;;;23.50;7.37;;;;;;;9.03;60.39;98861.55;2227192;80;21137;-79
2021/04/22 09:34:44;;;;;;;16.20;7.40;;;;;;;9.21;59.77;98854.48;2226886;80;21081;-79
2021/04/22 09:37:46;;;;;;;16.30;7.53;;;;;;;9.23;61.47;98855.39;2227114;80;21098;-79
2021/04/22 09:40:47;;;;;;;17.03;5.70;;;;;;;9.41;59.88;98858.73;2227597;80;21105;-79
2021/04/22 09:43:48;;;;;;;19.27;6.73;;;;;;;9.64;59.08;98869.56;2226986;79;21098;-80
2021/04/22 09:46:49;;;;;;;9.83;5.13;;;;;;;10.08;57.51;98854.15;2226929;80;21105;-76
2021/04/22 09:49:51;;;;;;;15.80;5.40;;;;;;;10.47;53.84;98852.55;2226334;80;21085;-78
2021/04/22 09:52:53;;;;;;;14.97;5.23;;;;;;;10.73;53.19;98851.98;2226372;80;21383;-78
2021/04/22 09:55:54;;;;;;;14.38;6.35;;;;;;;10.82;51.31;98849.47;2226118;80;21117;-78
2021/04/22 09:58:56;;;;;;;15.15;5.50;;;;;;;10.88;54.25;98845.62;2226233;79;21153;-78
2021/04/22 10:01:57;;;;;;;18.10;5.50;;;;;;;10.98;52.14;98842.67;2226525;80;21129;-78
2021/04/22 10:04:58;;;;;;;15.03;5.50;;;;;;;10.70;52.25;98847.60;2226286;79;21141;-79
2021/04/22 10:07:59;;;;;;;12.68;4.42;;;;;;;10.32;52.78;98852.76;2226374;80;21093;-78
2021/04/22 10:11:01;;;;;;;14.30;4.23;;;;;;;10.42;51.21;98855.53;2226303;80;21093;-79
2021/04/22 10:14:02;;;;;;;9.40;3.80;;;;;;;10.85;49.61;98860.83;2226050;79;21070;-79
2021/04/22 10:17:03;;;;;;;16.37;4.53;;;;;;;10.93;49.16;98853.50;2226685;80;21378;-79
2021/04/22 10:20:04;;;;;;;13.15;4.20;;;;;;;11.13;49.77;98849.36;2226538;80;21410;-80
2021/04/22 10:23:05;;;;;;;12.65;4.12;;;;;;;11.11;46.44;98845.42;2226218;80;21358;-78
2021/04/22 10:26:07;;;;;;;8.85;3.80;;;;;;;11.04;44.22;98847.53;2226423;80;21125;-79
2021/04/22 10:29:08;;;;;;;11.85;4.37;;;;;;;11.32;47.18;98839.98;2226221;80;21062;-79
2021/04/22 10:32:09;;;;;;;10.32;4.25;;;;;;;11.61;43.20;98838.48;2226081;79;21134;-78
2021/04/22 10:35:11;;;;;;;12.58;4.00;;;;;;;11.86;45.72;98834.33;2226303;80;21113;-78
2021/04/22 10:38:12;;;;;;;9.50;4.55;;;;;;;12.25;45.16;98828.91;2226433;80;21141;-79
2021/04/22 10:41:13;;;;;;;9.13;4.08;;;;;;;12.19;43.50;98830.19;2226403;80;21074;-79
2021/04/22 10:44:14;;;;;;;12.47;4.75;;;;;;;11.56;43.48;98845.41;2226155;80;21238;-79
2021/04/22 10:47:16;;;;;;;9.23;4.90;;;;;;;11.30;45.67;98849.11;2226368;80;21129;-78
2021/04/22 10:50:17;;;;;;;14.83;5.50;;;;;;;11.49;44.70;98847.53;2226477;80;21125;-77
2021/04/22 10:53:19;;;;;;;11.93;4.28;;;;;;;11.54;43.46;98848.45;2226736;80;21145;-80
2021/04/22 10:56:20;;;;;;;10.05;3.95;;;;;;;11.41;42.17;98839.62;2226512;80;21113;-78
2021/04/22 10:59:21;;;;;;;9.18;4.53;;;;;;;11.30;43.48;98839.97;2226458;79;21275;-79
2021/04/22 11:02:23;;;;;;;8.70;4.00;;;;;;;11.50;42.88;98834.91;2226575;80;21143;-80
2021/04/22 11:05:24;;;;;;;8.28;4.00;;;;;;;11.53;42.51;98835.36;2227171;79;21169;-79
2021/04/22 11:08:25;;;;;;;11.50;4.12;;;;;;;11.45;42.71;98847.94;2226847;79;21117;-79
2021/04/22 11:11:27;;;;;;;15.88;4.78;;;;;;;11.27;41.42;98843.86;2226833;80;21066;-80
2021/04/22 11:14:28;;;;;;;11.03;3.95;;;;;;;11.06;42.35;98851.47;2226641;80;21208;-81
2021/04/22 11:17:29;;;;;;;12.03;4.22;;;;;;;10.88;40.97;98856.07;2226426;80;21066;-79
2021/04/22 11:20:30;;;;;;;13.68;4.33;;;;;;;10.84;41.34;98860.81;2226698;79;21146;-80
2021/04/22 11:23:31;;;;;;;14.53;5.53;;;;;;;11.08;41.81;98859.77;2226303;80;21141;-79
2021/04/22 11:26:32;;;;;;;13.55;4.85;;;;;;;11.23;40.12;98848.58;2226691;80;21125;-79
2021/04/22 11:29:34;;;;;;;10.90;4.55;;;;;;;11.47;40.45;98854.06;2226319;80;21078;-79
2021/04/22 11:32:35;;;;;;;11.43;4.05;;;;;;;11.77;39.56;98849.92;2225846;80;21114;-78
2021/04/22 11:35:37;;;;;;;8.00;4.60;;;;;;;11.74;40.11;98849.91;2226135;80;21101;-79
2021/04/22 11:38:38;;;;;;;16.73;4.42;;;;;;;11.64;37.17;98847.66;2226453;80;21173;-79
2021/04/22 11:41:39;;;;;;;9.73;4.50;;;;;;;11.67;39.22;98847.67;2226459;80;21359;-79
2021/04/22 11:44:41;;;;;;;13.05;4.53;;;;;;;11.86;39.75;98840.87;2226456;80;21098;-79
2021/04/22 11:47:42;;;;;;;11.28;3.95;;;;;;;11.99;39.27;98844.44;2226478;80;21090;-78
2021/04/22 11:50:44;;;;;;;14.40;4.58;;;;;;;12.19;40.23;98858.98;2226327;79;21363;-78
2021/04/22 11:53:45;;;;;;;12.18;4.55;;;;;;;12.27;38.70;98842.88;2226473;80;21101;-79
2021/04/22 11:56:47;;;;;;;9.95;4.17;;;;;;;12.38;38.58;98842.50;2226586;80;21129;-79
2021/04/22 11:59:49;;;;;;;10.93;4.62;;;;;;;12.47;37.10;98832.06;2226276;80;21142;-78
2021/04/22 12:02:50;;;;;;;16.50;5.87;;;;;;;12.44;37.66;98834.67;2226281;80;21135;-78
2021/04/22 12:05:51;;;;;;;13.65;5.22;;;;;;;12.62;38.76;98833.87;2235874;79;21133;-80
2021/04/22 12:08:52;;;;;;;11.60;4.20;;;;;;;12.95;38.33;98842.25;2258604;79;21100;-80
2021/04/22 12:11:53;;;;;;;16.25;4.97;;;;;;;13.16;37.38;98826.60;2258597;79;21101;-80
2021/04/22 12:14:56;;;;;;;12.30;4.30;;;;;;;13.17;37.61;98827.08;2228809;79;21758;-81
2021/04/22 12:17:57;;;;;;;9.90;4.40;;;;;;;12.80;36.72;98846.14;2258481;79;21128;-80
2021/04/22 12:20:58;;;;;;;15.30;5.35;;;;;;;12.59;38.14;98838.66;2258220;79;21226;-80
2021/04/22 12:24:02;;;;;;;9.68;3.70;;;;;;;12.35;37.07;98830.27;2258081;79;21434;-79
2021/04/22 12:27:02;;;;;;;10.43;4.12;;;;;;;12.01;36.13;98834.42;2257941;79;21096;-79
2021/04/22 12:30:04;;;;;;;9.48;4.00;;;;;;;11.74;36.66;98824.63;2258272;79;21215;-80
2021/04/22 12:33:05;;;;;;;16.85;5.37;;;;;;;12.03;37.03;98820.05;2258080;79;21404;-79
2021/04/22 12:36:06;;;;;;;11.53;4.65;;;;;;;12.04;37.61;98817.88;2258463;79;21375;-79
2021/04/22 12:39:07;;;;;;;9.23;4.35;;;;;;;11.81;39.00;98820.34;2258979;79;21262;-82
2021/04/22 12:42:08;;;;;;;10.38;4.67;;;;;;;12.09;38.91;98804.37;2258775;79;21088;-80
2021/04/22 12:45:10;;;;;;;13.32;4.42;;;;;;;12.65;37.21;98815.11;2258413;79;21089;-80
2021/04/22 12:48:13;;;;;;;9.88;4.65;;;;;;;12.77;37.60;98812.96;2258310;79;21187;-79
2021/04/22 12:51:14;;;;;;;11.63;4.43;;;;;;;12.81;35.98;98809.48;2258555;79;21398;-81
2021/04/22 12:54:16;;;;;;;10.23;4.58;;;;;;;12.85;36.87;98808.61;2258718;79;21150;-78
2021/04/22 12:57:17;;;;;;;9.40;3.70;;;;;;;13.05;36.19;98798.20;2258481;79;21105;-81
2021/04/22 13:00:19;;;;;;;8.73;4.45;;;;;;;13.30;35.76;98795.19;2258399;78;21152;-80
2021/04/22 13:03:20;;;;;;;7.97;3.62;;;;;;;13.47;34.74;98806.55;2258308;79;21105;-77
2021/04/22 13:06:22;;;;;;;8.68;4.05;;;;;;;13.03;35.36;98814.36;2246117;79;21130;-80
2021/04/22 13:09:23;;;;;;;6.35;3.40;;;;;;;12.31;36.35;98808.88;2226616;80;21208;-79
2021/04/22 13:12:24;;;;;;;7.20;3.25;;;;;;;12.01;35.90;98806.08;2226626;80;21078;-80
2021/04/22 13:15:25;;;;;;;9.45;3.67;;;;;;;12.07;36.43;98810.91;2227014;80;21220;-84
2021/04/22 13:18:26;;;;;;;10.53;4.45;;;;;;;12.17;35.29;98803.14;2226650;80;21153;-79
2021/04/22 13:21:27;;;;;;;10.75;3.52;;;;;;;12.10;36.44;98803.08;2226285;80;21109;-78
2021/04/22 13:24:28;;;;;;;8.30;3.92;;;;;;;11.87;34.72;98829.97;2226828;79;21105;-79
2021/04/22 13:27:29;;;;;;;7.37;4.20;;;;;;;11.58;35.85;98812.75;2226917;80;21110;-80
2021/04/22 13:30:30;;;;;;;9.18;4.03;;;;;;;11.55;37.31;98808.38;2226328;79;21395;-80
2021/04/22 13:33:31;;;;;;;9.18;4.87;;;;;;;11.66;36.92;98800.17;2226262;80;21223;-79
2021/04/22 13:36:32;;;;;;;17.52;5.92;;;;;;;11.77;37.08;98814.63;2226546;80;21121;-80
2021/04/22 13:39:33;;;;;;;22.52;8.20;;;;;;;12.01;37.62;98804.77;2226686;80;21149;-81
2021/04/22 13:42:34;;;;;;;7.28;4.40;;;;;;;12.40;36.58;98805.42;2226719;80;21113;-81
2021/04/22 13:45:35;;;;;;;16.15;5.20;;;;;;;12.51;36.89;98807.64;2226774;80;21228;-81
2021/04/22 13:48:37;;;;;;;8.63;4.60;;;;;;;12.30;35.04;98810.18;2226647;79;21106;-82
2021/04/22 13:51:38;;;;;;;10.82;4.33;;;;;;;12.15;36.41;98808.80;2226871;80;21106;-81
2021/04/22 13:54:39;;;;;;;14.00;4.70;;;;;;;12.32;35.58;98811.06;2226757;80;21106;-81
2021/04/22 13:57:40;;;;;;;10.88;4.58;;;;;;;12.58;36.25;98815.09;2226462;80;21105;-80
2021/04/22 14:00:41;;;;;;;11.10;4.53;;;;;;;12.79;34.55;98813.84;2226377;80;21129;-80
2021/04/22 14:03:42;;;;;;;12.98;4.22;;;;;;;12.70;35.05;98819.92;2226597;80;21138;-81